Time;durP1;ratioP1;P1;durP2;ratioP2;P2;SDS_P1;SDS_P2;PMS_P1;PMS_P2;Temp;Humidity;BMP_temperature;BMP_pressure;BME280_temperature;BME280_humidity;BME280_pressure;Samples;Min_cycle;Max_cycle;Signal;HPM_P1;HPM_P2
2020/12/29 00:00:25;;;;;;;1.83;0.93;;;3.70;99.90;;;;;;10365851;28;20088;-53
2020/12/29 00:05:47;;;;;;;5.55;2.10;;;3.60;99.90;;;;;;10366381;28;20033;-54
2020/12/29 00:11:08;;;;;;;5.45;1.70;;;3.60;99.90;;;;;;10361318;28;20045;-54
2020/12/29 00:16:29;;;;;;;6.60;2.08;;;3.60;99.90;;;;;;10365061;28;20037;-54
2020/12/29 00:21:50;;;;;;;6.70;1.75;;;3.60;99.90;;;;;;10356900;28;20037;-54
2020/12/29 00:27:11;;;;;;;6.55;1.98;;;3.60;99.90;;;;;;10359550;28;20029;-54
2020/12/29 00:32:32;;;;;;;4.43;2.38;;;3.60;99.90;;;;;;10362999;28;20609;-54
2020/12/29 00:37:53;;;;;;;8.20;1.85;;;3.60;99.90;;;;;;10363435;28;20041;-54
2020/12/29 00:43:14;;;;;;;4.55;2.08;;;3.60;99.90;;;;;;10360649;28;20037;-54
2020/12/29 00:48:35;;;;;;;2.45;1.40;;;3.60;99.90;;;;;;10364596;28;20371;-54
2020/12/29 00:53:56;;;;;;;6.53;2.75;;;3.70;99.90;;;;;;10363036;28;20030;-54
2020/12/29 00:59:17;;;;;;;4.43;1.90;;;3.60;99.90;;;;;;10362423;28;20049;-54
2020/12/29 01:04:38;;;;;;;3.92;1.95;;;3.60;99.90;;;;;;10360578;28;20042;-53
2020/12/29 01:09:59;;;;;;;6.60;2.38;;;3.60;99.90;;;;;;10373908;28;20033;-54
2020/12/29 01:15:20;;;;;;;6.68;1.98;;;3.50;99.90;;;;;;10361902;28;20120;-55
2020/12/29 01:20:41;;;;;;;6.80;2.60;;;3.60;99.90;;;;;;10358813;28;20041;-54
2020/12/29 01:26:03;;;;;;;5.95;2.30;;;3.60;99.90;;;;;;10358698;28;20038;-54
2020/12/29 01:31:33;;;;;;;7.68;2.67;;;3.60;99.90;;;;;;10359441;28;20401;-54
2020/12/29 01:36:54;;;;;;;16.63;2.35;;;3.70;99.90;;;;;;10360300;28;20056;-54
2020/12/29 01:42:15;;;;;;;5.82;2.25;;;3.70;99.90;;;;;;10359712;28;20053;-55
2020/12/29 01:47:40;;;;;;;7.63;2.58;;;3.80;99.90;;;;;;10358988;28;20502;-55
2020/12/29 01:53:02;;;;;;;5.63;2.92;;;3.80;99.90;;;;;;10361345;28;20277;-55
2020/12/29 01:58:23;;;;;;;6.88;2.97;;;3.70;99.90;;;;;;10359769;28;20069;-54
2020/12/29 02:03:44;;;;;;;3.95;2.15;;;3.80;99.90;;;;;;10366533;28;20645;-55
2020/12/29 02:09:06;;;;;;;4.85;2.08;;;3.80;99.90;;;;;;10368790;28;20096;-54
2020/12/29 02:14:27;;;;;;;8.80;2.53;;;3.80;99.90;;;;;;10369215;28;20042;-54
2020/12/29 02:19:49;;;;;;;4.57;1.92;;;3.80;99.90;;;;;;10364276;28;20069;-55
2020/12/29 02:25:11;;;;;;;6.15;2.50;;;3.80;99.90;;;;;;10367016;28;20498;-54
2020/12/29 02:30:33;;;;;;;8.48;3.90;;;3.90;99.90;;;;;;10365754;28;20038;-55
2020/12/29 02:35:54;;;;;;;11.30;2.58;;;3.90;99.90;;;;;;10365904;28;20068;-55
2020/12/29 02:41:17;;;;;;;8.80;4.10;;;3.90;99.90;;;;;;10370547;28;20049;-54
2020/12/29 02:46:38;;;;;;;9.38;2.67;;;3.90;99.90;;;;;;10367328;28;20541;-55
2020/12/29 02:52:02;;;;;;;9.57;3.88;;;3.90;99.90;;;;;;10364908;28;20042;-55
2020/12/29 02:57:23;;;;;;;5.18;2.22;;;3.90;99.90;;;;;;10363913;28;20181;-54
2020/12/29 03:02:44;;;;;;;7.82;3.65;;;3.80;99.90;;;;;;10365236;28;20041;-55
2020/12/29 03:08:05;;;;;;;9.43;4.63;;;3.80;99.90;;;;;;10368758;28;20033;-54
2020/12/29 03:13:26;;;;;;;6.43;2.25;;;3.90;99.90;;;;;;10367185;28;20037;-54
2020/12/29 03:18:47;;;;;;;11.50;3.78;;;3.90;99.90;;;;;;10366294;28;20474;-55
2020/12/29 03:24:09;;;;;;;8.88;3.08;;;3.90;99.90;;;;;;10365431;28;20049;-55
2020/12/29 03:29:30;;;;;;;8.18;3.10;;;3.90;99.90;;;;;;10376867;28;20120;-54
2020/12/29 03:34:51;;;;;;;9.38;3.13;;;4.00;99.90;;;;;;10370283;28;20048;-55
2020/12/29 03:40:12;;;;;;;6.63;2.92;;;4.00;99.90;;;;;;10365217;28;20064;-54
2020/12/29 03:45:33;;;;;;;7.75;3.00;;;4.00;99.90;;;;;;10365385;28;20038;-55
2020/12/29 03:50:54;;;;;;;8.23;3.08;;;4.00;99.90;;;;;;10363048;28;20038;-54
2020/12/29 03:56:15;;;;;;;8.48;3.42;;;4.00;99.90;;;;;;10364347;28;20441;-55
2020/12/29 04:01:36;;;;;;;8.93;3.50;;;4.00;99.90;;;;;;10361393;28;20041;-55
2020/12/29 04:06:57;;;;;;;8.18;2.95;;;4.00;99.90;;;;;;10360607;28;20081;-55
2020/12/29 04:12:18;;;;;;;7.63;4.32;;;4.00;99.90;;;;;;10362092;28;20037;-55
2020/12/29 04:17:40;;;;;;;10.05;4.00;;;3.90;99.90;;;;;;10366065;28;20120;-54
2020/12/29 04:23:01;;;;;;;10.70;3.45;;;3.90;99.90;;;;;;10363037;28;20567;-55
2020/12/29 04:28:22;;;;;;;8.82;2.70;;;3.80;99.90;;;;;;10364762;28;20045;-54
2020/12/29 04:33:43;;;;;;;5.38;2.28;;;3.80;99.90;;;;;;10362604;28;20048;-55
2020/12/29 04:39:04;;;;;;;6.63;2.50;;;3.70;99.90;;;;;;10363854;28;20116;-55
2020/12/29 04:44:27;;;;;;;8.23;2.88;;;3.70;99.90;;;;;;10361209;28;20030;-55
2020/12/29 04:49:47;;;;;;;7.07;2.88;;;3.70;99.90;;;;;;10362220;28;20041;-55
2020/12/29 04:55:09;;;;;;;7.15;2.40;;;3.70;99.90;;;;;;10361687;28;20112;-55
2020/12/29 05:00:30;;;;;;;9.32;2.88;;;3.60;99.90;;;;;;10357777;28;20045;-55
2020/12/29 05:05:52;;;;;;;5.45;3.08;;;3.60;99.90;;;;;;10359548;28;20848;-54
2020/12/29 05:11:14;;;;;;;10.80;3.03;;;3.60;99.90;;;;;;10359761;28;20115;-54
2020/12/29 05:16:37;;;;;;;8.40;3.20;;;3.50;99.90;;;;;;10358870;28;20231;-54
2020/12/29 05:21:58;;;;;;;8.68;3.67;;;3.50;99.90;;;;;;10363236;28;20081;-54
2020/12/29 05:27:21;;;;;;;7.47;2.97;;;3.50;99.90;;;;;;10360558;28;20048;-54
2020/12/29 05:32:43;;;;;;;7.13;3.13;;;3.50;99.90;;;;;;10359610;28;20529;-54
2020/12/29 05:38:07;;;;;;;9.98;3.05;;;3.50;99.90;;;;;;10368297;28;20122;-55
2020/12/29 05:43:32;;;;;;;9.07;2.30;;;3.60;99.90;;;;;;10370162;28;20443;-55
2020/12/29 05:48:55;;;;;;;7.47;2.35;;;3.60;99.90;;;;;;10368850;28;20038;-55
2020/12/29 05:54:17;;;;;;;4.95;1.52;;;3.60;99.90;;;;;;10365445;28;20092;-54
2020/12/29 05:59:39;;;;;;;7.75;2.72;;;3.60;99.90;;;;;;10370509;28;20037;-53
2020/12/29 06:05:01;;;;;;;6.60;2.45;;;3.70;99.90;;;;;;10368992;28;20515;-54
2020/12/29 06:10:28;;;;;;;8.25;3.45;;;3.70;99.90;;;;;;10369326;28;20490;-54
2020/12/29 06:16:02;;;;;;;7.28;3.03;;;3.60;99.90;;;;;;10364188;28;20613;-54
2020/12/29 06:21:25;;;;;;;4.55;2.13;;;3.50;99.90;;;;;;10366189;28;20050;-54
2020/12/29 06:26:51;;;;;;;8.00;3.10;;;3.50;99.90;;;;;;10365214;28;20049;-54
2020/12/29 06:32:19;;;;;;;6.40;2.28;;;3.50;99.90;;;;;;10364318;28;20045;-54
2020/12/29 06:37:51;;;;;;;6.70;2.45;;;3.50;99.90;;;;;;10365671;28;20533;-54
2020/12/29 06:43:12;;;;;;;11.73;3.25;;;3.50;99.90;;;;;;10366380;28;20042;-54
2020/12/29 06:48:33;;;;;;;6.43;1.88;;;3.50;99.90;;;;;;10362639;28;20042;-55
2020/12/29 06:53:54;;;;;;;7.53;2.88;;;3.50;99.90;;;;;;10370931;28;20129;-55
2020/12/29 06:59:21;;;;;;;5.60;2.50;;;3.40;99.90;;;;;;10366665;28;20056;-55
2020/12/29 07:04:55;;;;;;;14.43;2.60;;;3.30;99.90;;;;;;10378460;28;20575;-54
2020/12/29 07:10:15;;;;;;;7.20;2.63;;;3.40;99.90;;;;;;10365838;28;20041;-54
2020/12/29 07:15:49;;;;;;;7.90;2.70;;;3.40;99.90;;;;;;10364830;28;20038;-55
2020/12/29 07:21:25;;;;;;;4.53;2.15;;;3.40;99.90;;;;;;10363169;28;20058;-55
2020/12/29 07:26:47;;;;;;;5.30;2.63;;;3.50;99.90;;;;;;10364984;28;20725;-54
2020/12/29 07:32:10;;;;;;;5.15;1.50;;;3.50;99.90;;;;;;10363367;28;20465;-55
2020/12/29 07:37:33;;;;;;;5.15;1.65;;;3.60;99.90;;;;;;10364595;28;20117;-54
2020/12/29 07:42:54;;;;;;;6.72;2.08;;;3.60;99.90;;;;;;10367713;28;20065;-55
2020/12/29 07:48:15;;;;;;;8.05;2.65;;;3.60;99.90;;;;;;10365924;28;20084;-54
2020/12/29 07:53:36;;;;;;;9.95;4.47;;;3.60;99.90;;;;;;10361973;28;20540;-54
2020/12/29 07:59:10;;;;;;;9.02;3.22;;;3.60;99.90;;;;;;10362622;28;20041;-54
2020/12/29 08:04:32;;;;;;;4.03;2.17;;;3.50;99.90;;;;;;10366152;28;20383;-55
2020/12/29 08:09:53;;;;;;;9.75;3.08;;;3.60;99.90;;;;;;10360813;28;20057;-54
2020/12/29 08:15:31;;;;;;;9.90;2.95;;;3.60;99.90;;;;;;10364313;28;20049;-54
2020/12/29 08:20:56;;;;;;;8.55;2.47;;;3.60;99.90;;;;;;10361101;28;20177;-54
2020/12/29 08:26:17;;;;;;;4.97;2.47;;;3.50;99.90;;;;;;10364264;28;20116;-54
2020/12/29 08:31:39;;;;;;;9.77;3.10;;;3.50;99.90;;;;;;10364612;28;20034;-55
2020/12/29 08:37:01;;;;;;;5.13;2.53;;;3.60;99.90;;;;;;10362686;28;20042;-54
2020/12/29 08:42:24;;;;;;;7.32;2.13;;;3.60;99.90;;;;;;10364190;28;20081;-54
2020/12/29 08:47:46;;;;;;;5.80;2.92;;;3.60;99.90;;;;;;10365272;28;20515;-55
2020/12/29 08:53:08;;;;;;;7.00;2.30;;;3.60;99.90;;;;;;10363686;28;20041;-54
2020/12/29 08:58:29;;;;;;;10.57;2.88;;;3.60;99.90;;;;;;10360130;28;20038;-54
2020/12/29 09:03:50;;;;;;;10.23;3.83;;;3.60;99.90;;;;;;10358088;28;20034;-54
2020/12/29 09:09:11;;;;;;;7.30;2.70;;;3.70;99.90;;;;;;10355122;28;20092;-54
2020/12/29 09:14:32;;;;;;;8.77;3.13;;;3.70;99.90;;;;;;10361639;28;20041;-54
2020/12/29 09:20:07;;;;;;;9.32;3.60;;;3.70;99.90;;;;;;10360672;28;20065;-54
2020/12/29 09:25:30;;;;;;;10.88;1.90;;;3.80;99.90;;;;;;10363508;28;20072;-54
2020/12/29 09:31:07;;;;;;;11.60;3.78;;;3.80;99.90;;;;;;10353507;28;20049;-54
2020/12/29 09:36:28;;;;;;;11.27;3.50;;;3.80;99.90;;;;;;10359487;28;20061;-54
2020/12/29 09:41:55;;;;;;;11.20;2.97;;;4.00;99.90;;;;;;10363874;28;20104;-54
2020/12/29 09:47:16;;;;;;;4.75;2.33;;;4.10;99.90;;;;;;10356819;28;20034;-54
2020/12/29 09:52:37;;;;;;;11.25;4.10;;;4.00;99.90;;;;;;10357522;28;20042;-54
2020/12/29 09:57:58;;;;;;;7.63;2.90;;;4.00;99.90;;;;;;10358920;28;20107;-54
2020/12/29 10:03:19;;;;;;;8.38;2.45;;;4.00;99.90;;;;;;10360652;28;20117;-54
2020/12/29 10:08:40;;;;;;;10.95;2.40;;;4.00;99.90;;;;;;10353532;28;20045;-54
2020/12/29 10:14:01;;;;;;;6.55;3.17;;;4.00;99.90;;;;;;10360641;28;20048;-54
2020/12/29 10:19:22;;;;;;;8.38;2.60;;;4.10;99.90;;;;;;10362383;28;20057;-54
2020/12/29 10:24:43;;;;;;;8.48;3.35;;;4.20;99.90;;;;;;10363121;28;20219;-54
2020/12/29 10:30:04;;;;;;;10.85;3.95;;;4.20;99.90;;;;;;10367308;28;20045;-54
2020/12/29 10:35:25;;;;;;;6.90;2.72;;;4.30;99.90;;;;;;10371697;28;22110;-54
2020/12/29 10:40:48;;;;;;;9.50;2.78;;;4.40;99.90;;;;;;10365975;28;20048;-55
2020/12/29 10:46:10;;;;;;;4.55;1.88;;;4.40;99.90;;;;;;10369000;28;20084;-54
2020/12/29 10:51:31;;;;;;;6.63;2.83;;;4.50;99.90;;;;;;10365891;28;20045;-54
2020/12/29 10:56:52;;;;;;;5.43;2.47;;;4.50;99.90;;;;;;10360307;28;20041;-54
2020/12/29 11:02:13;;;;;;;9.60;3.10;;;4.50;99.90;;;;;;10365351;28;20444;-54
2020/12/29 11:07:34;;;;;;;7.95;2.92;;;4.50;99.90;;;;;;10364264;28;20385;-54
2020/12/29 11:12:55;;;;;;;5.85;2.88;;;4.50;99.90;;;;;;10365461;28;20050;-54
2020/12/29 11:18:16;;;;;;;6.70;2.97;;;4.60;99.90;;;;;;10364809;28;20065;-54
2020/12/29 11:23:37;;;;;;;6.03;3.10;;;4.70;99.90;;;;;;10377712;28;20049;-54
2020/12/29 11:28:58;;;;;;;8.32;2.50;;;4.70;99.90;;;;;;10367122;28;20034;-54
2020/12/29 11:34:19;;;;;;;8.82;3.88;;;4.80;99.90;;;;;;10365617;28;20050;-54
2020/12/29 11:39:40;;;;;;;9.93;3.97;;;4.80;99.90;;;;;;10377357;28;20049;-54
2020/12/29 11:45:01;;;;;;;12.23;3.88;;;4.90;99.90;;;;;;10366320;28;20099;-54
2020/12/29 11:50:22;;;;;;;13.73;4.75;;;5.00;99.90;;;;;;10367794;28;20390;-54
2020/12/29 11:55:43;;;;;;;14.05;5.18;;;5.10;99.90;;;;;;10362805;28;20045;-54
2020/12/29 12:01:05;;;;;;;10.73;4.05;;;5.20;99.90;;;;;;10364407;28;20037;-54
2020/12/29 12:06:35;;;;;;;11.98;5.10;;;5.20;99.90;;;;;;10365394;28;20068;-54
2020/12/29 12:11:56;;;;;;;9.18;3.40;;;5.20;99.90;;;;;;10366986;28;20034;-54
2020/12/29 12:17:17;;;;;;;10.45;5.53;;;5.20;99.90;;;;;;10370533;28;20584;-54
2020/12/29 12:22:38;;;;;;;9.52;4.18;;;5.20;99.90;;;;;;10365338;28;20578;-54
2020/12/29 12:28:00;;;;;;;8.88;3.90;;;5.60;99.90;;;;;;10359345;28;20139;-54
2020/12/29 12:33:21;;;;;;;10.65;3.15;;;6.10;99.90;;;;;;10360760;28;20072;-55
2020/12/29 12:38:46;;;;;;;11.98;5.68;;;6.70;99.90;;;;;;10360133;28;20777;-54
2020/12/29 12:44:07;;;;;;;7.50;3.08;;;6.90;99.90;;;;;;10359140;28;20042;-54
2020/12/29 12:49:28;;;;;;;8.63;2.60;;;6.60;99.90;;;;;;10354271;28;20045;-54
2020/12/29 12:54:49;;;;;;;5.43;2.70;;;6.30;99.90;;;;;;10363402;28;20034;-54
2020/12/29 13:00:10;;;;;;;6.60;3.38;;;6.40;99.90;;;;;;10358652;28;20407;-54
2020/12/29 13:05:31;;;;;;;5.90;1.85;;;6.80;99.90;;;;;;10365299;28;20033;-54
2020/12/29 13:10:52;;;;;;;4.53;2.42;;;7.20;99.90;;;;;;10352445;28;20048;-54
2020/12/29 13:16:18;;;;;;;6.65;2.72;;;7.50;99.90;;;;;;10358225;28;20100;-54
2020/12/29 13:21:39;;;;;;;3.72;1.67;;;7.30;99.90;;;;;;10356494;28;20042;-54
2020/12/29 13:27:00;;;;;;;5.28;2.03;;;7.20;99.90;;;;;;10359878;28;20074;-54
2020/12/29 13:32:21;;;;;;;4.88;2.30;;;7.00;99.90;;;;;;10352526;28;20056;-54
2020/12/29 13:37:45;;;;;;;8.15;2.05;;;6.90;99.90;;;;;;10361373;28;20046;-54
2020/12/29 13:43:06;;;;;;;4.53;2.15;;;6.70;99.90;;;;;;10360933;28;20049;-54
2020/12/29 13:48:28;;;;;;;6.75;1.73;;;6.50;99.90;;;;;;10364108;28;20025;-54
2020/12/29 13:53:49;;;;;;;6.35;2.25;;;6.60;99.90;;;;;;10357665;28;20045;-53
2020/12/29 13:59:11;;;;;;;5.78;2.20;;;6.50;99.90;;;;;;10362931;28;20041;-54
2020/12/29 14:04:32;;;;;;;8.90;3.10;;;6.40;99.90;;;;;;10362978;28;20173;-54
2020/12/29 14:09:53;;;;;;;8.70;3.30;;;6.20;99.90;;;;;;10362645;28;20056;-54
2020/12/29 14:15:14;;;;;;;4.72;2.35;;;6.20;99.90;;;;;;10363028;28;20065;-54
2020/12/29 14:20:35;;;;;;;4.60;2.45;;;6.10;99.90;;;;;;10351807;28;20061;-54
2020/12/29 14:25:56;;;;;;;5.72;2.15;;;6.00;99.90;;;;;;10359312;28;20041;-54
2020/12/29 14:31:17;;;;;;;7.05;2.95;;;6.00;99.90;;;;;;10364732;28;20057;-53
2020/12/29 14:36:38;;;;;;;5.88;3.17;;;6.00;99.90;;;;;;10361696;28;20045;-54
2020/12/29 14:41:59;;;;;;;6.07;2.80;;;6.00;99.90;;;;;;10362898;28;20042;-54
2020/12/29 14:47:20;;;;;;;9.30;3.08;;;5.90;99.90;;;;;;10359498;28;20440;-54
2020/12/29 14:52:41;;;;;;;3.20;1.20;;;5.90;99.90;;;;;;10357848;28;20053;-53
2020/12/29 14:58:02;;;;;;;2.40;1.17;;;5.90;99.90;;;;;;10365772;28;20037;-53
2020/12/29 15:03:23;;;;;;;2.92;1.63;;;5.90;99.90;;;;;;10363584;28;20049;-53
2020/12/29 15:08:44;;;;;;;2.28;1.30;;;5.70;99.90;;;;;;10372630;28;20025;-53
2020/12/29 15:14:05;;;;;;;0.52;0.13;;;5.60;99.90;;;;;;10362727;28;20121;-53
2020/12/29 15:19:26;;;;;;;0.32;0.10;;;5.40;99.90;;;;;;10365758;28;20060;-53
2020/12/29 15:24:47;;;;;;;1.60;0.30;;;5.10;99.90;;;;;;10363702;28;20045;-54
2020/12/29 15:30:09;;;;;;;0.60;0.15;;;4.80;99.90;;;;;;10367081;28;20160;-54
2020/12/29 15:35:30;;;;;;;0.70;0.10;;;4.70;99.90;;;;;;10375681;28;20051;-54
2020/12/29 15:40:51;;;;;;;6.00;0.52;;;4.70;99.90;;;;;;10363802;28;20041;-54
2020/12/29 15:46:13;;;;;;;1.58;0.55;;;4.70;99.90;;;;;;10362158;28;20981;-54
2020/12/29 15:51:35;;;;;;;0.35;0.20;;;4.60;99.90;;;;;;10363199;28;20079;-54
2020/12/29 15:56:56;;;;;;;2.25;1.20;;;4.70;99.90;;;;;;10359178;28;20038;-54
2020/12/29 16:02:17;;;;;;;1.95;0.70;;;4.70;99.90;;;;;;10361944;28;20038;-54
2020/12/29 16:07:38;;;;;;;2.03;0.77;;;4.80;99.90;;;;;;10362518;28;20037;-53
2020/12/29 16:12:59;;;;;;;1.98;0.88;;;4.90;99.90;;;;;;10358255;28;20045;-54
2020/12/29 16:18:20;;;;;;;1.20;0.55;;;4.80;99.90;;;;;;10361563;28;20033;-54
2020/12/29 16:23:42;;;;;;;1.25;0.32;;;4.80;99.90;;;;;;10359469;28;20088;-53
2020/12/29 16:29:03;;;;;;;4.82;1.20;;;4.80;99.90;;;;;;10362056;28;20038;-54
2020/12/29 16:34:24;;;;;;;2.58;1.17;;;4.80;99.90;;;;;;10360475;28;20045;-54
2020/12/29 16:39:46;;;;;;;6.50;3.15;;;4.70;99.90;;;;;;10354062;28;20049;-54
2020/12/29 16:45:07;;;;;;;3.88;1.38;;;4.60;99.90;;;;;;10366947;28;20069;-54
2020/12/29 16:50:28;;;;;;;3.55;1.00;;;4.70;99.90;;;;;;10356799;28;20645;-54
2020/12/29 16:55:49;;;;;;;4.75;1.20;;;4.80;99.90;;;;;;10355150;28;20038;-54
2020/12/29 17:01:18;;;;;;;6.20;1.85;;;4.70;99.90;;;;;;10358982;28;22897;-54
2020/12/29 17:06:42;;;;;;;2.03;0.67;;;4.70;99.90;;;;;;10358412;28;20136;-54
2020/12/29 17:12:05;;;;;;;4.55;1.63;;;4.80;99.90;;;;;;10359800;28;20052;-54
2020/12/29 17:17:26;;;;;;;4.07;1.30;;;4.70;99.90;;;;;;10359844;28;20096;-54
2020/12/29 17:22:47;;;;;;;4.47;1.42;;;4.80;99.90;;;;;;10357015;28;20051;-54
2020/12/29 17:28:08;;;;;;;9.65;1.35;;;4.90;99.90;;;;;;10354733;28;20499;-53
2020/12/29 17:33:29;;;;;;;1.63;1.02;;;4.90;99.90;;;;;;10367150;28;20076;-53
2020/12/29 17:38:51;;;;;;;6.05;1.63;;;4.90;99.90;;;;;;10361654;28;20045;-53
2020/12/29 17:44:12;;;;;;;2.10;0.77;;;4.90;99.90;;;;;;10358756;28;20132;-53
2020/12/29 17:49:33;;;;;;;3.42;1.02;;;4.80;99.90;;;;;;10360470;28;20083;-53
2020/12/29 17:54:54;;;;;;;2.67;1.00;;;4.80;99.90;;;;;;10357538;28;20032;-53
2020/12/29 18:00:15;;;;;;;2.47;1.35;;;4.80;99.90;;;;;;10359608;28;20564;-53
2020/12/29 18:05:36;;;;;;;7.07;1.48;;;4.90;99.90;;;;;;10361463;28;20120;-53
2020/12/29 18:10:57;;;;;;;7.55;3.35;;;4.90;99.90;;;;;;10360756;28;20099;-53
2020/12/29 18:16:18;;;;;;;3.50;1.60;;;4.80;99.90;;;;;;10374303;28;20045;-53
2020/12/29 18:21:39;;;;;;;4.03;1.30;;;4.80;99.90;;;;;;10362174;28;20111;-53
2020/12/29 18:27:00;;;;;;;3.10;1.20;;;4.70;99.90;;;;;;10363738;28;20268;-53
2020/12/29 18:32:21;;;;;;;2.80;1.40;;;4.80;99.90;;;;;;10360711;28;20042;-53
2020/12/29 18:37:42;;;;;;;3.17;1.30;;;4.70;99.90;;;;;;10360077;28;20037;-54
2020/12/29 18:43:03;;;;;;;3.17;1.42;;;4.70;99.90;;;;;;10363223;28;20874;-53
2020/12/29 18:48:24;;;;;;;3.20;1.50;;;4.80;99.90;;;;;;10366802;28;20052;-53
2020/12/29 18:53:44;;;;;;;5.85;2.05;;;4.80;99.90;;;;;;10366547;28;20044;-53
2020/12/29 18:59:05;;;;;;;4.53;1.58;;;4.70;99.90;;;;;;10368792;28;20535;-53
2020/12/29 19:04:27;;;;;;;4.80;2.20;;;4.80;99.90;;;;;;10367322;28;20472;-53
2020/12/29 19:09:48;;;;;;;3.13;1.27;;;4.80;99.90;;;;;;10367047;28;20038;-53
2020/12/29 19:15:09;;;;;;;2.70;1.15;;;4.80;99.90;;;;;;10364918;28;20040;-53
2020/12/29 19:20:30;;;;;;;4.57;1.63;;;4.70;99.90;;;;;;10365183;28;20092;-53
2020/12/29 19:25:51;;;;;;;3.58;1.40;;;4.60;99.90;;;;;;10366301;28;20061;-54
2020/12/29 19:31:13;;;;;;;4.40;2.03;;;4.50;99.90;;;;;;10368731;28;20046;-53
2020/12/29 19:36:34;;;;;;;4.00;1.30;;;4.40;99.90;;;;;;10366777;28;20042;-53
2020/12/29 19:41:55;;;;;;;7.35;1.58;;;4.30;99.90;;;;;;10377447;28;20430;-53
2020/12/29 19:47:16;;;;;;;2.67;1.17;;;4.20;99.90;;;;;;10365987;28;20034;-53
2020/12/29 19:52:37;;;;;;;1.67;0.93;;;4.20;99.90;;;;;;10365815;28;20042;-54
2020/12/29 19:57:58;;;;;;;2.97;1.40;;;4.10;99.90;;;;;;10362982;28;20041;-53
2020/12/29 20:03:20;;;;;;;2.72;0.95;;;4.00;99.90;;;;;;10364592;28;20052;-53
2020/12/29 20:08:40;;;;;;;2.58;0.95;;;4.00;99.90;;;;;;10362395;28;20033;-53
2020/12/29 20:14:02;;;;;;;2.72;0.70;;;4.10;99.90;;;;;;10363873;28;20068;-53
2020/12/29 20:19:23;;;;;;;2.03;0.82;;;4.20;99.90;;;;;;10363125;28;20065;-53
2020/12/29 20:24:44;;;;;;;0.47;0.20;;;4.10;99.90;;;;;;10362200;28;20669;-53
2020/12/29 20:30:05;;;;;;;1.60;0.57;;;4.10;99.90;;;;;;10364667;28;20736;-54
2020/12/29 20:35:27;;;;;;;2.58;0.68;;;4.20;99.90;;;;;;10358073;28;20470;-53
2020/12/29 20:40:49;;;;;;;3.80;0.75;;;4.20;99.90;;;;;;10359531;28;20076;-54
2020/12/29 20:46:10;;;;;;;3.70;0.93;;;4.20;99.90;;;;;;10358068;28;20046;-53
2020/12/29 20:51:31;;;;;;;2.20;1.23;;;4.20;99.90;;;;;;10359187;28;20109;-53
2020/12/29 20:56:52;;;;;;;3.78;1.00;;;4.30;99.90;;;;;;10356431;28;20030;-53
2020/12/29 21:02:13;;;;;;;1.83;1.15;;;4.30;99.90;;;;;;10357548;28;20104;-54
2020/12/29 21:07:34;;;;;;;3.70;0.82;;;4.30;99.90;;;;;;10356452;28;20041;-54
2020/12/29 21:12:55;;;;;;;1.30;0.60;;;4.30;99.90;;;;;;10356464;28;20042;-53
2020/12/29 21:18:16;;;;;;;1.90;0.95;;;4.00;99.90;;;;;;10359014;28;20059;-53
2020/12/29 21:23:37;;;;;;;2.85;1.20;;;3.90;99.90;;;;;;10358341;28;20046;-53
2020/12/29 21:28:58;;;;;;;3.42;1.55;;;3.90;99.90;;;;;;10354746;28;20034;-53
2020/12/29 21:34:19;;;;;;;3.78;1.10;;;3.90;99.90;;;;;;10364416;28;20563;-54
2020/12/29 21:39:40;;;;;;;4.97;1.25;;;3.90;99.90;;;;;;10354584;28;20037;-53
2020/12/29 21:45:02;;;;;;;4.00;1.63;;;4.00;99.90;;;;;;10356722;28;20349;-53
2020/12/29 21:50:23;;;;;;;4.40;1.80;;;4.10;99.90;;;;;;10356220;28;20048;-53
2020/12/29 21:55:44;;;;;;;9.07;2.20;;;4.20;99.90;;;;;;10354614;28;20034;-53
2020/12/29 22:01:14;;;;;;;7.53;2.08;;;4.10;99.90;;;;;;10354928;28;20049;-53
2020/12/29 22:06:35;;;;;;;6.78;2.13;;;4.20;99.90;;;;;;10355292;28;20501;-53
2020/12/29 22:11:56;;;;;;;11.02;2.72;;;4.10;99.90;;;;;;10363617;28;20045;-53
2020/12/29 22:17:17;;;;;;;7.38;2.00;;;4.10;99.90;;;;;;10351260;28;20049;-53
2020/12/29 22:22:38;;;;;;;10.65;2.42;;;4.00;99.90;;;;;;10360803;28;20546;-53
2020/12/29 22:27:59;;;;;;;4.25;1.90;;;4.00;99.90;;;;;;10359251;28;20041;-53
2020/12/29 22:33:20;;;;;;;4.32;2.13;;;4.00;99.90;;;;;;10373565;28;20483;-53
2020/12/29 22:38:41;;;;;;;6.05;1.75;;;3.90;99.90;;;;;;10358329;28;20041;-53
2020/12/29 22:44:02;;;;;;;8.73;2.03;;;3.90;99.90;;;;;;10361274;28;20036;-53
2020/12/29 22:49:24;;;;;;;4.30;1.20;;;3.70;99.90;;;;;;10371765;28;20482;-53
2020/12/29 22:54:45;;;;;;;5.55;2.53;;;3.60;99.90;;;;;;10360047;28;20679;-53
2020/12/29 23:00:11;;;;;;;5.90;1.58;;;3.50;99.90;;;;;;10370500;28;20486;-53
2020/12/29 23:05:32;;;;;;;7.07;2.85;;;3.50;99.90;;;;;;10359034;28;20724;-53
2020/12/29 23:10:54;;;;;;;4.65;1.98;;;3.50;99.90;;;;;;10367764;28;20034;-53
2020/12/29 23:16:15;;;;;;;3.65;1.60;;;3.40;99.90;;;;;;10358061;28;20048;-53
2020/12/29 23:21:37;;;;;;;4.32;1.80;;;3.40;99.90;;;;;;10359606;28;20050;-53
2020/12/29 23:26:58;;;;;;;6.72;2.40;;;3.40;99.90;;;;;;10359654;28;20083;-53
2020/12/29 23:32:19;;;;;;;6.03;1.88;;;3.30;99.90;;;;;;10368978;28;20061;-53
2020/12/29 23:37:40;;;;;;;7.57;2.33;;;3.30;99.90;;;;;;10362076;28;20452;-53
2020/12/29 23:43:00;;;;;;;15.70;4.40;;;3.30;99.90;;;;;;10372825;28;20060;-53
2020/12/29 23:48:22;;;;;;;4.80;1.70;;;3.40;99.90;;;;;;10355627;28;20609;-53
2020/12/29 23:53:43;;;;;;;4.55;1.30;;;3.40;99.90;;;;;;10360135;28;20049;-53
2020/12/29 23:59:04;;;;;;;3.80;1.67;;;3.30;99.90;;;;;;10357955;28;20886;-53
